Time;durP1;ratioP1;P1;durP2;ratioP2;P2;SDS_P1;SDS_P2;PMS_P1;PMS_P2;Temp;Humidity;BMP_temperature;BMP_pressure;BME280_temperature;BME280_humidity;BME280_pressure;Samples;Min_cycle;Max_cycle;Signal;HPM_P1;HPM_P2
2021/08/17 00:01:05;;;;;;;;;3.00;3.00;;;;;26.71;50.97;97796.44;4901773;28;104277;-83
2021/08/17 00:03:32;;;;;;;;;1.00;0.33;;;;;26.70;51.13;97803.16;4889085;28;103840;-83
2021/08/17 00:06:03;;;;;;;;;3.00;2.33;;;;;26.67;50.88;97804.59;4892945;28;102514;-84
2021/08/17 00:08:35;;;;;;;;;2.00;2.00;;;;;26.68;50.89;97797.09;4887151;28;103818;-84
2021/08/17 00:11:11;;;;;;;;;2.00;2.00;;;;;26.68;50.80;97808.19;4893748;28;103292;-84
2021/08/17 00:13:47;;;;;;;;;2.00;1.33;;;;;26.67;50.50;97812.09;4892036;28;102897;-83
2021/08/17 00:16:23;;;;;;;;;1.00;1.00;;;;;26.64;50.61;97808.84;4903625;28;102616;-83
2021/08/17 00:18:58;;;;;;;;;1.25;1.25;;;;;26.62;50.54;97810.28;4895190;28;102707;-83
2021/08/17 00:21:31;;;;;;;;;2.33;2.33;;;;;26.64;50.56;97811.63;4898275;28;104160;-83
2021/08/17 00:24:03;;;;;;;;;2.00;1.33;;;;;26.61;50.47;97801.16;4897141;28;102468;-83
2021/08/17 00:26:36;;;;;;;;;2.00;2.00;;;;;26.62;50.27;97799.19;4887835;28;105014;-83
2021/08/17 00:29:08;;;;;;;;;2.33;2.33;;;;;26.61;50.19;97794.81;4911904;28;103106;-83
2021/08/17 00:31:41;;;;;;;;;3.33;3.33;;;;;26.60;50.02;97796.78;4914873;28;107861;-83
2021/08/17 00:34:17;;;;;;;;;2.33;2.00;;;;;26.60;49.85;97805.09;4905649;28;102656;-84
2021/08/17 00:36:55;;;;;;;;;2.00;2.00;;;;;26.59;50.12;97797.09;4897223;28;103158;-83
2021/08/17 00:39:28;;;;;;;;;2.00;1.67;;;;;26.58;50.06;97782.41;4902328;28;102730;-83
2021/08/17 00:42:05;;;;;;;;;2.00;2.00;;;;;26.57;49.80;97779.94;4906044;28;103225;-83
2021/08/17 00:44:39;;;;;;;;;4.00;3.00;;;;;26.56;49.84;97784.69;4904082;28;102687;-83
2021/08/17 00:47:06;;;;;;;;;1.33;1.33;;;;;26.53;49.60;97790.06;4900349;28;102281;-84
2021/08/17 00:49:33;;;;;;;;;0.67;0.67;;;;;26.51;49.80;97809.81;4893934;28;102789;-84
2021/08/17 00:52:01;;;;;;;;;2.33;1.33;;;;;26.52;49.52;97816.16;4897753;28;104081;-84
2021/08/17 00:54:28;;;;;;;;;2.00;2.00;;;;;26.50;49.73;97829.53;4897702;28;102304;-84
2021/08/17 00:56:56;;;;;;;;;1.00;1.00;;;;;26.51;49.35;97840.31;4884381;28;104654;-84
2021/08/17 00:59:23;;;;;;;;;1.00;0.00;;;;;26.49;49.30;97834.25;4901473;28;102378;-84
2021/08/17 01:01:50;;;;;;;;;2.00;2.00;;;;;26.49;49.28;97816.81;4875924;28;104170;-84
2021/08/17 01:04:18;;;;;;;;;1.33;1.33;;;;;26.48;49.26;97801.28;4883054;28;102719;-84
2021/08/17 01:06:46;;;;;;;;;1.00;1.00;;;;;26.48;49.29;97810.44;4896230;28;101989;-84
2021/08/17 01:09:13;;;;;;;;;2.00;2.00;;;;;26.46;49.10;97798.03;4893985;28;102545;-84
2021/08/17 01:11:49;;;;;;;;;0.67;0.67;;;;;26.46;49.11;97818.28;4887124;28;104211;-84
2021/08/17 01:14:23;;;;;;;;;1.67;1.00;;;;;26.45;49.00;97805.53;4845909;28;102789;-84
2021/08/17 01:16:55;;;;;;;;;1.00;0.00;;;;;26.44;48.97;97797.53;4908727;28;104186;-84
2021/08/17 01:19:31;;;;;;;;;1.33;1.00;;;;;26.43;49.02;97813.34;4878966;28;103066;-84
2021/08/17 01:22:04;;;;;;;;;1.00;1.00;;;;;26.41;48.84;97809.28;4903921;28;103347;-84
2021/08/17 01:24:38;;;;;;;;;1.00;1.00;;;;;26.39;48.83;97809.59;4896932;28;105530;-84
2021/08/17 01:27:15;;;;;;;;;1.00;1.00;;;;;26.41;48.76;97825.91;4907600;28;102486;-84
2021/08/17 01:29:50;;;;;;;;;1.00;1.00;;;;;26.39;48.77;97811.56;4899383;28;104739;-84
2021/08/17 01:32:23;;;;;;;;;2.67;2.00;;;;;26.39;48.85;97812.38;4908111;28;103081;-84
2021/08/17 01:34:55;;;;;;;;;0.33;0.33;;;;;26.36;48.76;97824.13;4912002;28;102471;-84
2021/08/17 01:37:27;;;;;;;;;0.33;0.33;;;;;26.35;48.64;97833.56;4921696;28;102137;-84
2021/08/17 01:40:03;;;;;;;;;1.67;1.00;;;;;26.35;48.59;97833.56;4923498;28;104847;-84
2021/08/17 01:42:42;;;;;;;;;1.00;1.00;;;;;26.33;48.48;97840.59;4909679;28;103084;-84
2021/08/17 01:45:17;;;;;;;;;0.33;0.33;;;;;26.33;48.49;97846.94;4895344;28;102491;-84
2021/08/17 01:47:55;;;;;;;;;1.33;1.00;;;;;26.31;48.42;97860.31;4887050;28;102556;-84
2021/08/17 01:50:26;;;;;;;;;2.00;2.00;;;;;26.30;48.37;97858.66;4927099;28;104818;-84
2021/08/17 01:52:53;;;;;;;;;0.00;0.00;;;;;26.29;48.23;97840.41;4911606;28;103902;-84
2021/08/17 01:55:21;;;;;;;;;0.33;0.33;;;;;26.15;48.44;97809.19;4915363;28;102514;-84
2021/08/17 01:57:48;;;;;;;;;1.00;0.33;;;;;26.27;48.28;97823.28;4917455;28;102374;-84
2021/08/17 02:00:16;;;;;;;;;1.00;1.00;;;;;26.27;48.50;97826.03;4905107;28;105009;-84
2021/08/17 02:02:43;;;;;;;;;1.00;0.33;;;;;26.25;48.31;97842.19;4912993;28;104782;-84
2021/08/17 02:05:11;;;;;;;;;0.67;0.67;;;;;26.24;48.21;97826.69;4900322;28;102814;-84
2021/08/17 02:07:38;;;;;;;;;0.00;0.00;;;;;26.24;48.13;97823.94;4910231;28;102273;-84
2021/08/17 02:10:06;;;;;;;;;0.00;0.00;;;;;26.24;48.21;97829.47;4907768;28;102617;-84
2021/08/17 02:12:33;;;;;;;;;0.33;0.00;;;;;26.22;48.16;97831.72;4905411;28;104137;-84
2021/08/17 02:15:00;;;;;;;;;0.33;0.00;;;;;26.22;48.12;97836.47;4909268;28;102573;-84
2021/08/17 02:17:27;;;;;;;;;2.00;1.00;;;;;26.21;47.97;97827.31;4908276;28;102475;-84
2021/08/17 02:19:55;;;;;;;;;0.00;0.00;;;;;26.20;48.18;97811.81;4904330;28;102600;-84
2021/08/17 02:22:24;;;;;;;;;0.33;0.33;;;;;26.18;48.00;97811.31;4914625;28;104108;-84
2021/08/17 02:24:51;;;;;;;;;1.00;1.00;;;;;26.17;47.85;97818.00;4917072;28;102664;-84
2021/08/17 02:27:18;;;;;;;;;1.00;0.33;;;;;26.16;47.94;97810.84;4914489;28;102550;-84
2021/08/17 02:29:45;;;;;;;;;1.00;1.00;;;;;26.13;47.78;97803.16;4907605;28;102644;-84
2021/08/17 02:32:12;;;;;;;;;0.33;0.33;;;;;26.14;47.89;97805.59;4910926;28;109319;-84
2021/08/17 02:34:40;;;;;;;;;0.00;0.00;;;;;26.13;47.86;97826.13;4914259;28;102367;-84
2021/08/17 02:37:07;;;;;;;;;1.00;1.00;;;;;26.13;47.77;97840.00;4921746;28;102431;-84
2021/08/17 02:39:34;;;;;;;;;0.00;0.00;;;;;26.11;47.71;97839.50;4919880;28;102194;-84
2021/08/17 02:42:01;;;;;;;;;1.00;0.33;;;;;26.10;47.92;97832.31;4916446;28;107039;-84
2021/08/17 02:44:31;;;;;;;;;1.00;1.00;;;;;26.09;47.74;97829.88;4923844;28;102277;-84
2021/08/17 02:46:58;;;;;;;;;3.00;2.33;;;;;26.07;47.79;97821.88;4888803;28;102592;-84
2021/08/17 02:49:25;;;;;;;;;0.00;0.00;;;;;26.07;47.76;97805.25;4908207;28;102583;-84
2021/08/17 02:51:52;;;;;;;;;0.00;0.00;;;;;26.07;47.63;97816.31;4898770;28;104120;-84
2021/08/17 02:54:19;;;;;;;;;1.00;1.00;;;;;26.06;47.64;97822.19;4898521;28;102709;-84
2021/08/17 02:56:47;;;;;;;;;1.00;1.00;;;;;26.04;47.60;97816.97;4916585;28;103539;-84
2021/08/17 02:59:14;;;;;;;;;0.00;0.00;;;;;26.04;47.71;97807.84;4915241;28;103331;-84
2021/08/17 03:01:41;;;;;;;;;1.00;0.00;;;;;26.02;47.55;97796.28;4896808;28;111157;-84
2021/08/17 03:04:08;;;;;;;;;0.00;0.00;;;;;26.02;47.53;97823.97;4908119;28;102733;-84
2021/08/17 03:06:35;;;;;;;;;0.33;0.33;;;;;26.02;47.71;97829.53;4906998;28;102571;-84
2021/08/17 03:09:03;;;;;;;;;1.00;1.00;;;;;25.98;47.73;97821.00;4902640;28;102236;-84
2021/08/17 03:11:30;;;;;;;;;1.00;1.00;;;;;25.99;47.56;97814.34;4897401;28;104123;-84
2021/08/17 03:13:57;;;;;;;;;0.00;0.00;;;;;25.99;47.49;97832.91;4911331;28;105842;-84
2021/08/17 03:16:25;;;;;;;;;1.00;1.00;;;;;25.98;47.57;97831.31;4893626;28;102652;-84
2021/08/17 03:18:52;;;;;;;;;1.67;1.00;;;;;25.98;47.53;97851.50;4914022;28;102905;-84
2021/08/17 03:21:20;;;;;;;;;1.33;1.00;;;;;25.97;47.50;97860.13;4910502;28;103928;-83
2021/08/17 03:23:47;;;;;;;;;1.33;0.67;;;;;25.95;47.43;97871.53;4918719;28;106127;-84
2021/08/17 03:26:14;;;;;;;;;1.00;0.00;;;;;25.94;47.53;97877.38;4917440;28;102697;-84
2021/08/17 03:28:41;;;;;;;;;0.67;0.67;;;;;25.93;47.52;97884.09;4907923;28;102556;-84
2021/08/17 03:31:08;;;;;;;;;1.00;0.67;;;;;25.91;47.42;97878.03;4918730;28;104055;-84
2021/08/17 03:33:35;;;;;;;;;1.00;1.00;;;;;25.92;47.50;97876.91;4893377;28;103502;-84
2021/08/17 03:36:06;;;;;;;;;0.33;0.00;;;;;25.89;47.42;97877.53;4901141;28;104447;-84
2021/08/17 03:38:34;;;;;;;;;0.00;0.00;;;;;25.89;47.17;97875.59;4923684;28;102606;-84
2021/08/17 03:41:01;;;;;;;;;0.00;0.00;;;;;25.89;47.26;97880.31;4910726;28;109539;-84
2021/08/17 03:43:28;;;;;;;;;1.00;1.00;;;;;25.88;47.31;97886.97;4904612;28;104905;-84
2021/08/17 03:45:58;;;;;;;;;0.00;0.00;;;;;25.85;47.29;97884.84;4909714;28;104526;-84
2021/08/17 03:48:25;;;;;;;;;1.33;0.67;;;;;25.84;47.25;97899.84;4899699;28;103860;-84
2021/08/17 03:50:52;;;;;;;;;0.00;0.00;;;;;25.85;47.38;97895.94;4871830;28;104323;-84
2021/08/17 03:53:20;;;;;;;;;0.33;0.33;;;;;25.83;47.21;97903.72;4918597;28;102638;-84
2021/08/17 03:55:48;;;;;;;;;0.33;0.33;;;;;25.83;47.30;97903.72;4909074;28;106566;-84
2021/08/17 03:58:15;;;;;;;;;1.00;1.00;;;;;25.83;47.41;97900.97;4914612;28;102623;-84
2021/08/17 04:00:42;;;;;;;;;0.33;0.00;;;;;25.81;47.46;97906.00;4918689;28;104044;-84
2021/08/17 04:03:09;;;;;;;;;0.50;0.00;;;;;25.79;47.26;97908.28;4902597;28;102709;-84
2021/08/17 04:05:37;;;;;;;;;0.00;0.00;;;;;25.79;47.28;97902.72;4915197;28;102583;-84
2021/08/17 04:08:05;;;;;;;;;1.00;0.00;;;;;25.77;47.28;97917.72;4899716;28;102370;-84
2021/08/17 04:10:32;;;;;;;;;0.33;0.00;;;;;25.77;47.20;97920.47;4905809;28;104712;-84
2021/08/17 04:12:59;;;;;;;;;0.33;0.00;;;;;25.76;47.17;97918.84;4919970;28;102918;-84
2021/08/17 04:15:26;;;;;;;;;1.00;1.00;;;;;25.75;47.22;97931.06;4910013;28;103374;-84
2021/08/17 04:17:54;;;;;;;;;0.33;0.33;;;;;25.60;47.10;97917.59;4904165;28;102572;-84
2021/08/17 04:20:22;;;;;;;;;1.00;1.00;;;;;25.73;47.25;97938.03;4891180;28;104468;-84
2021/08/17 04:22:49;;;;;;;;;0.00;0.00;;;;;25.72;47.49;97948.31;4884403;28;104897;-83
2021/08/17 04:25:16;;;;;;;;;0.00;0.00;;;;;25.70;47.34;97945.03;4898980;28;102825;-84
2021/08/17 04:27:43;;;;;;;;;0.00;0.00;;;;;25.70;47.34;97950.59;4897839;28;102667;-85
2021/08/17 04:30:11;;;;;;;;;0.00;0.00;;;;;25.68;47.31;97946.47;4897219;28;104286;-84
2021/08/17 04:32:38;;;;;;;;;1.00;1.00;;;;;25.68;47.32;97944.53;4896387;28;104900;-84
2021/08/17 04:35:06;;;;;;;;;0.33;0.33;;;;;25.67;47.24;97945.66;4902992;28;102717;-83
2021/08/17 04:37:34;;;;;;;;;0.67;0.67;;;;;25.66;47.19;97948.75;4897173;28;102583;-83
2021/08/17 04:40:01;;;;;;;;;0.33;0.33;;;;;25.62;47.20;97956.84;4895024;28;104399;-83
2021/08/17 04:42:28;;;;;;;;;1.00;1.00;;;;;25.65;47.17;97953.47;4895315;28;102345;-83
2021/08/17 04:44:55;;;;;;;;;1.67;1.00;;;;;25.64;47.23;97956.56;4892219;28;102407;-84
2021/08/17 04:47:31;;;;;;;;;0.00;0.00;;;;;25.64;47.38;97959.31;4891766;28;103205;-82
2021/08/17 04:49:58;;;;;;;;;1.00;1.00;;;;;25.62;47.38;97959.63;4905468;28;104147;-84
2021/08/17 04:52:26;;;;;;;;;1.00;1.00;;;;;25.63;47.16;97968.75;4894052;28;102563;-84
2021/08/17 04:54:53;;;;;;;;;0.67;0.67;;;;;25.62;47.41;97961.59;4897517;28;103120;-84
2021/08/17 04:57:20;;;;;;;;;0.00;0.00;;;;;25.62;47.19;97964.38;4903153;28;102250;-84
2021/08/17 04:59:47;;;;;;;;;0.00;0.00;;;;;25.61;47.41;97968.25;4896985;28;104094;-84
2021/08/17 05:02:14;;;;;;;;;1.67;0.00;;;;;25.59;47.36;97976.06;4897919;28;102520;-84
2021/08/17 05:04:41;;;;;;;;;0.33;0.33;;;;;25.59;47.30;97970.50;4895718;28;102506;-84
2021/08/17 05:07:09;;;;;;;;;0.00;0.00;;;;;25.58;47.23;97980.78;4906166;28;105182;-86
2021/08/17 05:09:36;;;;;;;;;0.00;0.00;;;;;25.58;47.30;97985.47;4904863;28;104093;-85
2021/08/17 05:12:03;;;;;;;;;0.67;0.67;;;;;25.58;47.21;97991.03;4890264;28;102300;-85
2021/08/17 05:14:31;;;;;;;;;0.00;0.00;;;;;25.57;47.07;97990.22;4889173;28;102255;-86
2021/08/17 05:16:58;;;;;;;;;0.00;0.00;;;;;25.55;47.13;97995.25;4895067;28;103456;-86
2021/08/17 05:19:25;;;;;;;;;0.00;0.00;;;;;25.55;46.98;97994.44;4904221;28;104325;-85
2021/08/17 05:21:53;;;;;;;;;0.67;0.67;;;;;25.54;46.88;98009.38;4923294;28;102442;-86
2021/08/17 05:24:20;;;;;;;;;1.00;1.00;;;;;25.52;47.07;98015.22;4907956;28;102640;-85
2021/08/17 05:26:47;;;;;;;;;0.67;0.67;;;;;25.51;46.89;98024.66;4916775;28;102631;-86
2021/08/17 05:29:14;;;;;;;;;0.00;0.00;;;;;25.50;46.72;98036.84;4932872;28;105424;-85
2021/08/17 05:31:42;;;;;;;;;1.00;1.00;;;;;25.50;46.74;98025.78;4913339;28;102801;-85
2021/08/17 05:34:09;;;;;;;;;1.00;1.00;;;;;25.50;46.78;98036.84;4907247;28;102699;-85
2021/08/17 05:36:36;;;;;;;;;1.00;1.00;;;;;25.48;46.56;98039.13;4923761;28;102648;-85
2021/08/17 05:39:03;;;;;;;;;2.33;1.00;;;;;25.47;46.57;98034.72;4902819;28;104036;-85
2021/08/17 05:41:30;;;;;;;;;1.00;1.00;;;;;25.46;46.57;98048.88;4914039;28;102199;-85
2021/08/17 05:43:57;;;;;;;;;0.33;0.33;;;;;25.44;46.54;98035.31;4920118;28;102806;-85
2021/08/17 05:46:25;;;;;;;;;0.00;0.00;;;;;25.44;46.53;98049.16;4925821;28;104074;-84
2021/08/17 05:48:52;;;;;;;;;1.00;1.00;;;;;25.42;46.09;98040.38;4916398;28;104131;-85
2021/08/17 05:51:19;;;;;;;;;1.00;1.00;;;;;25.43;46.31;98043.97;4923036;28;102634;-85
2021/08/17 05:53:46;;;;;;;;;0.00;0.00;;;;;25.41;46.21;98041.50;4916871;28;102737;-85
2021/08/17 05:56:13;;;;;;;;;0.00;0.00;;;;;25.38;46.01;98044.06;4920247;28;102648;-84
2021/08/17 05:58:40;;;;;;;;;0.67;0.67;;;;;25.39;45.93;98048.47;4917176;28;104279;-84
2021/08/17 06:01:08;;;;;;;;;0.00;0.00;;;;;25.36;45.87;98060.97;4912606;28;102738;-85
2021/08/17 06:03:49;;;;;;;;;0.00;0.00;;;;;25.36;45.71;98052.69;4921789;28;102675;-85
2021/08/17 06:06:16;;;;;;;;;0.00;0.00;;;;;25.35;45.88;98059.38;4902851;28;102647;-84
2021/08/17 06:08:43;;;;;;;;;0.00;0.00;;;;;25.34;45.94;98052.19;4908581;28;104076;-84
2021/08/17 06:11:10;;;;;;;;;0.00;0.00;;;;;25.33;45.48;98061.59;4920991;28;102482;-84
2021/08/17 06:13:38;;;;;;;;;0.67;0.00;;;;;25.32;45.82;98074.63;4920184;28;103959;-85
2021/08/17 06:16:05;;;;;;;;;1.00;1.00;;;;;25.31;45.32;98083.22;4905502;28;102605;-84
2021/08/17 06:18:33;;;;;;;;;0.00;0.00;;;;;25.29;45.62;98094.63;4915008;28;104194;-84
2021/08/17 06:21:00;;;;;;;;;1.00;1.00;;;;;25.29;45.54;98093.81;4900721;28;102703;-84
2021/08/17 06:23:27;;;;;;;;;0.00;0.00;;;;;25.28;45.49;98101.28;4897748;28;102593;-84
2021/08/17 06:25:56;;;;;;;;;2.00;1.00;;;;;25.27;45.35;98096.03;4911457;28;102650;-84
2021/08/17 06:28:23;;;;;;;;;0.00;0.00;;;;;25.27;45.40;98101.59;4909615;28;104490;-84
2021/08/17 06:30:50;;;;;;;;;0.00;0.00;;;;;25.25;45.15;98092.78;4919137;28;102051;-85
2021/08/17 06:33:17;;;;;;;;;0.00;0.00;;;;;25.24;45.15;98091.13;4911883;28;102467;-85
2021/08/17 06:35:44;;;;;;;;;0.00;0.00;;;;;25.22;45.04;98104.44;4905241;28;102438;-85
2021/08/17 06:38:12;;;;;;;;;0.33;0.33;;;;;25.20;45.16;98112.25;4918839;28;103832;-85
2021/08/17 06:40:39;;;;;;;;;0.00;0.00;;;;;25.19;44.94;98105.06;4919076;28;102508;-85
2021/08/17 06:43:06;;;;;;;;;0.00;0.00;;;;;25.17;44.83;98121.19;4906158;28;102267;-84
2021/08/17 06:45:33;;;;;;;;;0.00;0.00;;;;;25.15;44.92;98128.97;4922950;28;102222;-84
2021/08/17 06:48:00;;;;;;;;;0.00;0.00;;;;;25.15;44.92;98123.44;4919840;28;104437;-85
2021/08/17 06:50:44;;;;;;;;;1.00;0.00;;;;;25.13;44.82;98128.44;4900852;28;102251;-86
2021/08/17 06:53:11;;;;;;;;;0.00;0.00;;;;;25.13;44.86;98145.03;4912713;28;102698;-85
2021/08/17 06:55:38;;;;;;;;;0.00;0.00;;;;;25.11;44.85;98147.31;4917743;28;102314;-85
2021/08/17 06:58:11;;;;;;;;;0.00;0.00;;;;;25.08;44.62;98153.47;4917944;28;104187;-86
2021/08/17 07:00:40;;;;;;;;;0.00;0.00;;;;;25.09;44.70;98160.59;4926709;28;102136;-85
2021/08/17 07:03:08;;;;;;;;;0.00;0.00;;;;;25.06;44.47;98158.47;4910837;28;105704;-85
2021/08/17 07:05:37;;;;;;;;;0.00;0.00;;;;;25.05;44.56;98165.13;4900775;28;102472;-84
2021/08/17 07:08:04;;;;;;;;;0.00;0.00;;;;;24.93;44.33;98145.44;4901753;28;103929;-85
2021/08/17 07:10:32;;;;;;;;;0.67;0.00;;;;;25.01;44.35;98161.31;4920156;28;102535;-85
2021/08/17 07:13:18;;;;;;;;;0.00;0.00;;;;;25.03;44.49;98164.63;4907467;28;102410;-85
2021/08/17 07:15:46;;;;;;;;;0.00;0.00;;;;;25.01;44.37;98170.44;4912424;28;102229;-84
2021/08/17 07:18:14;;;;;;;;;0.00;0.00;;;;;25.00;44.15;98181.81;4934709;28;104423;-85
2021/08/17 07:20:41;;;;;;;;;0.00;0.00;;;;;24.97;44.07;98193.50;4893314;28;102536;-84
2021/08/17 07:23:11;;;;;;;;;0.00;0.00;;;;;24.96;44.04;98203.72;4901510;28;102542;-85
2021/08/17 07:25:38;;;;;;;;;0.00;0.00;;;;;24.97;44.08;98212.84;4897884;28;102656;-85
2021/08/17 07:28:06;;;;;;;;;0.00;0.00;;;;;24.97;44.10;98223.91;4892357;28;104080;-84
2021/08/17 07:30:33;;;;;;;;;0.00;0.00;;;;;24.93;44.17;98220.94;4897366;28;105873;-85
2021/08/17 07:33:00;;;;;;;;;0.00;0.00;;;;;24.92;44.13;98227.59;4896912;28;102566;-85
2021/08/17 07:35:27;;;;;;;;;0.00;0.00;;;;;24.92;43.94;98229.53;4894697;28;102733;-85
2021/08/17 07:37:55;;;;;;;;;0.00;0.00;;;;;24.90;43.94;98229.88;4891590;28;104130;-85
2021/08/17 07:40:22;;;;;;;;;0.00;0.00;;;;;24.90;44.21;98220.75;4897337;28;102470;-86
2021/08/17 07:42:49;;;;;;;;;0.00;0.00;;;;;24.87;44.03;98220.22;4880496;28;104591;-86
2021/08/17 07:45:17;;;;;;;;;0.00;0.00;;;;;24.85;44.07;98219.69;4895653;28;102237;-86
2021/08/17 07:47:48;;;;;;;;;0.00;0.00;;;;;24.85;43.87;98233.50;4880495;28;104112;-86
2021/08/17 07:50:15;;;;;;;;;0.00;0.00;;;;;24.86;44.11;98229.63;4899628;28;103232;-86
2021/08/17 07:52:43;;;;;;;;;0.00;0.00;;;;;24.77;44.04;98206.50;4887782;28;102359;-86
2021/08/17 07:55:12;;;;;;;;;0.00;0.00;;;;;24.84;43.97;98220.78;4893497;28;102580;-86
2021/08/17 07:57:40;;;;;;;;;0.00;0.00;;;;;24.84;44.02;98219.97;4882025;28;105545;-86
2021/08/17 08:00:08;;;;;;;;;1.00;0.00;;;;;24.82;44.21;98217.50;4894375;28;102631;-86
2021/08/17 08:02:36;;;;;;;;;0.67;0.00;;;;;24.82;43.91;98217.50;4903388;28;102710;-86
2021/08/17 08:05:04;;;;;;;;;0.33;0.00;;;;;24.82;44.10;98211.13;4899031;28;102464;-85
2021/08/17 08:07:31;;;;;;;;;0.00;0.00;;;;;24.79;43.93;98207.03;4903717;28;104090;-85
2021/08/17 08:09:59;;;;;;;;;0.00;0.00;;;;;24.78;44.19;98194.34;4900973;28;102200;-86
2021/08/17 08:12:26;;;;;;;;;0.00;0.00;;;;;24.78;44.03;98205.41;4895319;28;102284;-85
2021/08/17 08:14:53;;;;;;;;;0.00;0.00;;;;;24.78;44.14;98205.41;4904452;28;105485;-86
2021/08/17 08:17:21;;;;;;;;;0.00;0.00;;;;;24.78;44.26;98222.00;4898301;28;109236;-86
2021/08/17 08:19:48;;;;;;;;;0.00;0.00;;;;;24.77;44.10;98228.63;4907002;28;102702;-86
2021/08/17 08:22:15;;;;;;;;;0.00;0.00;;;;;24.78;44.34;98227.53;4927942;28;102014;-86
2021/08/17 08:24:42;;;;;;;;;0.00;0.00;;;;;24.77;44.37;98234.16;4927347;28;102928;-86
2021/08/17 08:27:11;;;;;;;;;0.00;0.00;;;;;24.77;44.62;98238.88;4923212;28;104077;-86
2021/08/17 08:29:40;;;;;;;;;0.33;0.00;;;;;24.76;44.29;98238.09;4925321;28;102607;-86
2021/08/17 08:32:07;;;;;;;;;0.00;0.00;;;;;24.76;44.31;98228.97;4916741;28;102478;-85
2021/08/17 08:34:34;;;;;;;;;0.67;0.00;;;;;24.75;44.60;98222.59;4915185;28;102709;-85
2021/08/17 08:37:02;;;;;;;;;0.00;0.00;;;;;24.76;44.22;98227.03;4924561;28;104353;-85
2021/08/17 08:39:33;;;;;;;;;0.00;0.00;;;;;24.74;44.43;98240.31;4922777;28;102164;-85
2021/08/17 08:42:02;;;;;;;;;0.00;0.00;;;;;24.67;44.43;98233.53;4918550;28;102406;-86
2021/08/17 08:44:30;;;;;;;;;0.00;0.00;;;;;24.73;44.50;98252.50;4912558;28;103317;-85
2021/08/17 08:46:57;;;;;;;;;0.00;0.00;;;;;24.60;44.48;98235.84;4904317;28;104262;-85
2021/08/17 08:49:24;;;;;;;;;0.00;0.00;;;;;24.74;44.51;98254.13;4913753;28;105293;-84
2021/08/17 08:51:51;;;;;;;;;1.00;0.33;;;;;24.73;44.77;98258.03;4910057;28;103212;-86
2021/08/17 08:54:18;;;;;;;;;0.00;0.00;;;;;24.68;44.56;98244.28;4901360;28;102701;-86
2021/08/17 08:56:46;;;;;;;;;0.00;0.00;;;;;24.71;44.38;98243.69;4929525;28;104169;-86
2021/08/17 08:59:13;;;;;;;;;0.33;0.00;;;;;24.71;44.59;98251.16;4917577;28;102233;-86
2021/08/17 09:01:40;;;;;;;;;0.00;0.00;;;;;24.72;44.55;98259.13;4931746;28;102682;-86
2021/08/17 09:04:08;;;;;;;;;0.00;0.00;;;;;24.73;44.56;98260.78;4924179;28;102306;-85
2021/08/17 09:06:35;;;;;;;;;0.00;0.00;;;;;24.73;44.60;98268.25;4905663;28;104358;-85
2021/08/17 09:09:13;;;;;;;;;0.00;0.00;;;;;24.73;44.62;98269.09;4881160;28;103051;-85
2021/08/17 09:11:41;;;;;;;;;0.00;0.00;;;;;24.73;44.69;98263.56;4941629;28;104468;-85
2021/08/17 09:14:15;;;;;;;;;0.00;0.00;;;;;24.73;44.65;98260.78;4917250;28;102645;-86
2021/08/17 09:16:42;;;;;;;;;0.00;0.00;;;;;24.73;44.56;98258.03;4900715;28;104340;-86
2021/08/17 09:19:22;;;;;;;;;0.00;0.00;;;;;24.73;44.47;98263.56;4914692;28;102485;-85
2021/08/17 09:21:49;;;;;;;;;0.00;0.00;;;;;24.74;44.83;98259.66;4904257;28;102468;-85
2021/08/17 09:24:20;;;;;;;;;0.00;0.00;;;;;24.76;44.80;98251.91;4893019;28;103441;-86
2021/08/17 09:26:51;;;;;;;;;0.00;0.00;;;;;24.75;44.80;98254.97;4906988;28;104136;-85
2021/08/17 09:29:23;;;;;;;;;0.00;0.00;;;;;24.75;44.87;98272.38;4904659;28;102521;-85
2021/08/17 09:31:52;;;;;;;;;0.00;0.00;;;;;24.76;44.56;98279.56;4892989;28;102405;-85
2021/08/17 09:34:19;;;;;;;;;0.00;0.00;;;;;24.69;44.48;98273.56;4905470;28;102683;-86
2021/08/17 09:36:47;;;;;;;;;0.00;0.00;;;;;24.77;44.69;98283.94;4902381;28;104076;-85
2021/08/17 09:39:31;;;;;;;;;0.00;0.00;;;;;24.78;44.52;98282.00;4885460;28;102688;-85
2021/08/17 09:42:27;;;;;;;;;0.00;0.00;;;;;24.78;44.56;98282.84;4899577;28;102298;-85
2021/08/17 09:45:06;;;;;;;;;0.00;0.00;;;;;24.78;44.37;98282.00;4906131;28;102592;-85
2021/08/17 09:47:34;;;;;;;;;0.00;0.00;;;;;24.77;44.38;98291.41;4839056;28;108835;-85
2021/08/17 09:50:23;;;;;;;;;0.00;0.00;;;;;24.77;44.46;98303.31;4899269;28;102549;-85
2021/08/17 09:52:51;;;;;;;;;0.00;0.00;;;;;24.76;44.35;98295.34;4918621;28;102679;-85
2021/08/17 09:55:20;;;;;;;;;0.00;0.00;;;;;24.77;44.60;98314.38;4899960;28;102555;-85
2021/08/17 09:57:48;;;;;;;;;0.33;0.00;;;;;24.77;44.36;98314.38;4902652;28;104241;-85
2021/08/17 10:00:17;;;;;;;;;0.00;0.00;;;;;24.79;44.54;98322.38;4901981;28;102576;-86
2021/08/17 10:02:46;;;;;;;;;0.00;0.00;;;;;24.78;44.37;98307.72;4881891;28;102981;-85
2021/08/17 10:05:15;;;;;;;;;0.33;0.00;;;;;24.78;44.47;98315.19;4923540;28;102478;-85
2021/08/17 10:07:42;;;;;;;;;0.00;0.00;;;;;24.79;44.60;98309.38;4904776;28;104657;-85
2021/08/17 10:10:11;;;;;;;;;0.00;0.00;;;;;24.80;44.40;98307.44;4899971;28;102484;-85
2021/08/17 10:12:38;;;;;;;;;0.00;0.00;;;;;24.81;44.31;98325.69;4914006;28;102333;-85
2021/08/17 10:15:07;;;;;;;;;0.00;0.00;;;;;24.81;44.23;98322.91;4905229;28;102195;-85
2021/08/17 10:17:34;;;;;;;;;0.00;0.00;;;;;24.80;44.08;98313.78;4901595;28;104487;-85
2021/08/17 10:20:03;;;;;;;;;1.00;0.00;;;;;24.80;44.29;98308.25;4911198;28;102302;-85
2021/08/17 10:22:30;;;;;;;;;0.00;0.00;;;;;24.80;44.09;98319.31;4908103;28;102408;-84
2021/08/17 10:25:05;;;;;;;;;0.33;0.00;;;;;24.82;44.55;98308.75;4903032;28;103999;-84
2021/08/17 10:27:33;;;;;;;;;0.00;0.00;;;;;24.81;44.09;98309.88;4905748;28;104086;-85
2021/08/17 10:30:17;;;;;;;;;1.00;0.00;;;;;24.81;44.39;98311.84;4902377;28;102895;-84
2021/08/17 10:32:53;;;;;;;;;0.00;0.00;;;;;24.81;44.42;98318.19;4914416;28;102735;-85
2021/08/17 10:35:36;;;;;;;;;0.00;0.00;;;;;24.81;44.05;98317.38;4923806;28;102261;-85
2021/08/17 10:38:06;;;;;;;;;0.00;0.00;;;;;24.83;44.29;98317.88;4857402;28;110057;-85
2021/08/17 10:40:49;;;;;;;;;0.00;0.00;;;;;24.81;44.01;98315.41;4917276;28;102792;-85
2021/08/17 10:43:31;;;;;;;;;0.00;0.00;;;;;24.82;44.06;98321.75;4915147;28;102286;-85
2021/08/17 10:45:59;;;;;;;;;0.00;0.00;;;;;24.72;44.18;98317.22;4925465;28;103724;-84
2021/08/17 10:48:48;;;;;;;;;0.00;0.00;;;;;24.83;44.24;98334.47;4922407;28;104105;-85
2021/08/17 10:51:18;;;;;;;;;2.00;0.00;;;;;24.82;43.93;98322.59;4856146;28;102292;-85
2021/08/17 10:53:53;;;;;;;;;0.00;0.00;;;;;24.81;44.17;98318.19;4922321;28;102690;-84
2021/08/17 10:56:22;;;;;;;;;0.00;0.00;;;;;24.82;44.06;98314.28;4912179;28;102659;-85
2021/08/17 10:58:50;;;;;;;;;0.00;0.00;;;;;24.81;43.99;98312.66;4917746;28;104243;-85
2021/08/17 11:01:37;;;;;;;;;0.00;0.00;;;;;24.81;43.68;98326.47;4919289;28;102414;-85
2021/08/17 11:04:18;;;;;;;;;0.00;0.00;;;;;24.81;43.79;98326.47;4858587;28;102593;-85
2021/08/17 11:06:49;;;;;;;;;0.00;0.00;;;;;24.82;43.83;98327.28;4918857;28;102656;-85
2021/08/17 11:09:20;;;;;;;;;0.00;0.00;;;;;24.82;43.74;98328.13;4920356;28;104079;-84
2021/08/17 11:12:05;;;;;;;;;0.00;0.00;;;;;24.81;43.90;98329.25;4925386;28;102118;-85
2021/08/17 11:14:37;;;;;;;;;1.00;0.00;;;;;24.81;43.85;98334.78;4919586;28;102174;-84
2021/08/17 11:17:05;;;;;;;;;0.00;0.00;;;;;24.80;43.75;98337.84;4922034;28;102563;-84
2021/08/17 11:19:45;;;;;;;;;0.00;0.00;;;;;24.80;43.76;98338.69;4923545;28;111691;-84
2021/08/17 11:22:17;;;;;;;;;0.00;0.00;;;;;24.80;43.93;98335.91;4893207;28;102723;-85
2021/08/17 11:25:06;;;;;;;;;0.33;0.33;;;;;24.81;43.69;98340.31;4888084;28;103183;-84
2021/08/17 11:27:38;;;;;;;;;0.00;0.00;;;;;24.82;44.04;98332.84;4851707;28;102500;-85
2021/08/17 11:30:09;;;;;;;;;0.00;0.00;;;;;24.83;44.04;98338.06;4897821;28;104086;-85
2021/08/17 11:32:45;;;;;;;;;0.33;0.33;;;;;24.83;43.79;98331.72;4902666;28;102410;-84
2021/08/17 11:35:18;;;;;;;;;0.00;0.00;;;;;24.81;44.13;98326.47;4898228;28;102579;-84